Time;durP1;ratioP1;P1;durP2;ratioP2;P2;SDS_P1;SDS_P2;PMS_P1;PMS_P2;Temp;Humidity;BMP_temperature;BMP_pressure;BME280_temperature;BME280_humidity;BME280_pressure;Samples;Min_cycle;Max_cycle;Signal;HPM_P1;HPM_P2
2023/04/06 00:00:21;;;;;;;;;;;0.10;1.00;;;;;;5074802;28;20263;-81
2023/04/06 00:05:49;;;;;;;;;;;0.10;1.00;;;;;;5073531;28;20009;-81
2023/04/06 00:08:15;;;;;;;;;;;0.00;1.00;;;;;;5076355;28;19904;-72
2023/04/06 00:10:41;;;;;;;;;;;-0.10;1.00;;;;;;5080304;28;19934;-72
2023/04/06 00:13:07;;;;;;;;;;;-0.10;1.00;;;;;;5076677;28;20328;-72
2023/04/06 00:15:33;;;;;;;;;;;-0.10;1.00;;;;;;5076569;28;19977;-72
2023/04/06 00:17:58;;;;;;;;;;;-0.10;1.00;;;;;;5076746;28;20287;-72
2023/04/06 00:20:25;;;;;;;;;;;-0.10;1.00;;;;;;5059008;28;19962;-72
2023/04/06 00:22:56;;;;;;;;;;;-0.10;1.00;;;;;;5076911;28;20009;-72
2023/04/06 00:25:22;;;;;;;;;;;-0.10;1.00;;;;;;5077150;28;19951;-81
2023/04/06 00:27:47;;;;;;;;;;;-0.10;1.00;;;;;;5076233;28;19974;-81
2023/04/06 00:30:20;;;;;;;;;;;-0.10;1.00;;;;;;5076741;28;19904;-81
2023/04/06 00:32:46;;;;;;;;;;;-0.20;1.00;;;;;;5076947;28;20228;-81
2023/04/06 00:35:11;;;;;;;;;;;-0.20;1.00;;;;;;5076717;28;19942;-81
2023/04/06 00:37:37;;;;;;;;;;;-0.20;1.00;;;;;;5076791;28;19905;-81
2023/04/06 00:40:03;;;;;;;;;;;-0.20;1.00;;;;;;5075407;28;19914;-72
2023/04/06 00:42:28;;;;;;;;;;;-0.20;1.00;;;;;;5076889;28;19904;-72
2023/04/06 00:44:57;;;;;;;;;;;-0.20;1.00;;;;;;5076207;28;19981;-72
2023/04/06 00:47:24;;;;;;;;;;;-0.30;1.00;;;;;;5076227;28;20002;-72
2023/04/06 00:49:50;;;;;;;;;;;-0.40;1.00;;;;;;5076252;28;19905;-72
2023/04/06 00:52:16;;;;;;;;;;;-0.30;1.00;;;;;;5091795;28;19928;-72
2023/04/06 00:57:44;;;;;;;;;;;-0.30;1.00;;;;;;5076554;28;19915;-81
2023/04/06 01:00:15;;;;;;;;;;;-0.40;1.00;;;;;;5076160;28;19938;-81
2023/04/06 01:03:02;;;;;;;;;;;-0.40;1.00;;;;;;5076076;28;19909;-81
2023/04/06 01:05:40;;;;;;;;;;;-0.50;1.00;;;;;;5076264;28;19943;-81
2023/04/06 01:08:14;;;;;;;;;;;-0.50;1.00;;;;;;5080460;28;20409;-81
2023/04/06 01:10:50;;;;;;;;;;;-0.50;1.00;;;;;;5089435;28;19915;-81
2023/04/06 01:13:38;;;;;;;;;;;-0.50;1.00;;;;;;5076127;28;19931;-81
2023/04/06 01:16:09;;;;;;;;;;;-0.50;1.00;;;;;;5075772;28;20352;-81
2023/04/06 01:18:35;;;;;;;;;;;-0.50;1.00;;;;;;5075342;28;19908;-81
2023/04/06 01:24:04;;;;;;;;;;;-0.60;1.00;;;;;;5075753;28;20366;-72
2023/04/06 01:26:30;;;;;;;;;;;-0.60;1.00;;;;;;5075438;28;20031;-72
2023/04/06 01:28:56;;;;;;;;;;;-0.70;1.00;;;;;;5075540;28;20470;-72
2023/04/06 01:31:22;;;;;;;;;;;-0.70;1.00;;;;;;5057319;28;20022;-72
2023/04/06 01:33:47;;;;;;;;;;;-0.70;1.00;;;;;;5075316;28;19991;-72
2023/04/06 01:36:13;;;;;;;;;;;-0.80;1.00;;;;;;5057500;28;20325;-72
2023/04/06 01:38:50;;;;;;;;;;;-0.90;1.00;;;;;;5075410;28;19959;-73
2023/04/06 01:41:16;;;;;;;;;;;-1.00;1.00;;;;;;5075242;28;19908;-81
2023/04/06 01:43:45;;;;;;;;;;;-1.00;1.00;;;;;;5075650;28;19911;-81
2023/04/06 01:46:32;;;;;;;;;;;-1.00;1.00;;;;;;5076077;28;19970;-81
2023/04/06 01:52:20;;;;;;;;;;;-1.00;1.00;;;;;;5074748;28;19915;-81
2023/04/06 01:54:56;;;;;;;;;;;-1.00;1.00;;;;;;5075668;28;20425;-81
2023/04/06 01:57:26;;;;;;;;;;;-1.00;1.00;;;;;;5075118;28;19999;-81
2023/04/06 02:00:02;;;;;;;;;;;-1.00;1.00;;;;;;5075173;28;19904;-81
2023/04/06 02:02:32;;;;;;;;;;;-1.00;1.00;;;;;;5074832;28;19962;-81
2023/04/06 02:05:02;;;;;;;;;;;-1.10;1.00;;;;;;5083872;28;19912;-81
2023/04/06 02:07:44;;;;;;;;;;;-1.10;1.00;;;;;;5095369;28;19908;-81
2023/04/06 02:10:14;;;;;;;;;;;-1.10;1.00;;;;;;5094089;28;19911;-72
2023/04/06 02:12:40;;;;;;;;;;;-1.20;1.00;;;;;;5074652;28;20053;-72
2023/04/06 02:15:08;;;;;;;;;;;-1.20;1.00;;;;;;5074585;28;20362;-72
2023/04/06 02:17:34;;;;;;;;;;;-1.10;1.00;;;;;;5074629;28;19908;-72
2023/04/06 02:19:59;;;;;;;;;;;-1.20;1.00;;;;;;5074624;28;19927;-72
2023/04/06 02:22:25;;;;;;;;;;;-1.20;1.00;;;;;;5094046;28;20259;-72
2023/04/06 02:24:51;;;;;;;;;;;-1.20;1.00;;;;;;5095046;28;19963;-72
2023/04/06 02:27:16;;;;;;;;;;;-1.20;1.00;;;;;;5085979;28;20263;-72
2023/04/06 02:29:42;;;;;;;;;;;-1.20;1.00;;;;;;5074128;28;19998;-72
2023/04/06 02:32:08;;;;;;;;;;;-1.20;1.00;;;;;;5090821;28;20056;-72
2023/04/06 02:34:33;;;;;;;;;;;-1.20;1.00;;;;;;5094646;28;19911;-72
2023/04/06 02:37:02;;;;;;;;;;;-1.20;1.00;;;;;;5094462;28;19991;-72
2023/04/06 02:39:32;;;;;;;;;;;-1.20;1.00;;;;;;5094733;28;19908;-81
2023/04/06 02:42:20;;;;;;;;;;;-1.20;1.00;;;;;;5078711;28;20006;-81
2023/04/06 02:45:02;;;;;;;;;;;-1.30;1.00;;;;;;5074546;28;19915;-81
2023/04/06 02:47:33;;;;;;;;;;;-1.30;1.00;;;;;;5074382;28;19912;-81
2023/04/06 02:53:01;;;;;;;;;;;-1.30;1.00;;;;;;5074300;28;19974;-81
2023/04/06 02:55:44;;;;;;;;;;;-1.30;1.00;;;;;;5074841;28;19908;-81
2023/04/06 03:01:13;;;;;;;;;;;-1.40;1.00;;;;;;5073898;28;19935;-81
2023/04/06 03:04:14;;;;;;;;;;;-1.40;1.00;;;;;;5074085;28;20318;-81
2023/04/06 03:06:50;;;;;;;;;;;-1.30;1.00;;;;;;5074447;28;19912;-81
2023/04/06 03:09:27;;;;;;;;;;;-1.40;1.00;;;;;;5074193;28;19939;-81
2023/04/06 03:11:57;;;;;;;;;;;-1.40;1.00;;;;;;5074181;28;19915;-81
2023/04/06 03:17:25;;;;;;;;;;;-1.40;1.00;;;;;;5073969;28;19911;-81
2023/04/06 03:20:08;;;;;;;;;;;-1.40;1.00;;;;;;5074020;28;19905;-81
2023/04/06 03:22:50;;;;;;;;;;;-1.40;1.00;;;;;;5074735;28;19931;-81
2023/04/06 03:25:16;;;;;;;;;;;-1.40;1.00;;;;;;5074284;28;19908;-72
2023/04/06 03:27:41;;;;;;;;;;;-1.50;1.00;;;;;;5073757;28;19912;-72
2023/04/06 03:30:07;;;;;;;;;;;-1.50;1.00;;;;;;5073845;28;19905;-72
2023/04/06 03:32:33;;;;;;;;;;;-1.50;1.00;;;;;;5073660;28;19987;-72
2023/04/06 03:34:58;;;;;;;;;;;-1.50;1.00;;;;;;5073725;28;20335;-72
2023/04/06 03:37:24;;;;;;;;;;;-1.50;1.00;;;;;;5073714;28;19912;-72
2023/04/06 03:39:51;;;;;;;;;;;-1.60;1.00;;;;;;5087972;28;19908;-73
2023/04/06 03:42:17;;;;;;;;;;;-1.60;1.00;;;;;;5078177;28;19956;-72
2023/04/06 03:44:44;;;;;;;;;;;-1.60;1.00;;;;;;5096282;28;20319;-72
2023/04/06 03:47:10;;;;;;;;;;;-1.60;1.00;;;;;;5097784;28;20268;-72
2023/04/06 03:49:36;;;;;;;;;;;-1.50;1.00;;;;;;5097630;28;19941;-72
2023/04/06 03:52:02;;;;;;;;;;;-1.50;1.00;;;;;;5082348;28;19951;-72
2023/04/06 03:54:28;;;;;;;;;;;-1.50;1.00;;;;;;5093595;28;19907;-72
2023/04/06 03:56:54;;;;;;;;;;;-1.60;1.00;;;;;;5097827;28;20394;-72
2023/04/06 03:59:20;;;;;;;;;;;-1.60;1.00;;;;;;5097424;28;19986;-72
2023/04/06 04:01:50;;;;;;;;;;;-1.60;1.00;;;;;;5089957;28;19916;-72
2023/04/06 04:04:16;;;;;;;;;;;-1.60;1.00;;;;;;5086053;28;19908;-72
2023/04/06 04:06:42;;;;;;;;;;;-1.60;1.00;;;;;;5097312;28;20448;-72
2023/04/06 04:09:07;;;;;;;;;;;-1.60;1.00;;;;;;5097377;28;19962;-73
2023/04/06 04:17:38;;;;;;;;;;;-1.60;1.00;;;;;;5077528;28;19911;-86
2023/04/06 04:32:17;;;;;;;;;;;-1.70;1.00;;;;;;5086777;28;19989;-85
2023/04/06 04:35:02;;;;;;;;;;;-1.70;1.00;;;;;;5077023;28;20315;-85
2023/04/06 04:38:02;;;;;;;;;;;-1.80;1.00;;;;;;5077328;28;19930;-85
2023/04/06 04:46:34;;;;;;;;;;;-1.80;1.00;;;;;;5077089;28;19934;-86
2023/04/06 04:52:02;;;;;;;;;;;-1.70;1.00;;;;;;5079219;28;19915;-85
2023/04/06 04:57:31;;;;;;;;;;;-1.80;1.00;;;;;;5096993;28;19950;-82
2023/04/06 04:59:57;;;;;;;;;;;-1.80;1.00;;;;;;5082366;28;19995;-82
2023/04/06 05:02:23;;;;;;;;;;;-1.80;1.00;;;;;;5076255;28;20348;-82
2023/04/06 05:04:56;;;;;;;;;;;-1.70;1.00;;;;;;5058165;28;19915;-82
2023/04/06 05:07:32;;;;;;;;;;;-1.70;1.00;;;;;;5058036;28;19915;-82
2023/04/06 05:10:20;;;;;;;;;;;-1.70;1.00;;;;;;5076112;28;19908;-82
2023/04/06 05:19:04;;;;;;;;;;;-1.60;1.00;;;;;;5091874;28;19915;-86
2023/04/06 05:24:33;;;;;;;;;;;-1.60;1.00;;;;;;5075930;28;19999;-86
2023/04/06 05:27:26;;;;;;;;;;;-1.60;1.00;;;;;;5063304;28;19947;-86
2023/04/06 05:29:52;;;;;;;;;;;-1.50;1.00;;;;;;5074750;28;19912;-86
2023/04/06 05:35:20;;;;;;;;;;;-1.30;1.00;;;;;;5082152;28;19918;-86
2023/04/06 05:41:14;;;;;;;;;;;-1.20;1.00;;;;;;5079635;28;20394;-81
2023/04/06 05:43:44;;;;;;;;;;;-1.20;1.00;;;;;;5076955;28;19908;-79
2023/04/06 05:46:14;;;;;;;;;;;-1.10;1.00;;;;;;5076998;28;19912;-79
2023/04/06 05:48:45;;;;;;;;;;;-1.10;1.00;;;;;;5075390;28;19947;-78
2023/04/06 05:51:20;;;;;;;;;;;-1.00;1.00;;;;;;5075259;28;19912;-79
2023/04/06 05:53:46;;;;;;;;;;;-1.00;1.00;;;;;;5075152;28;19911;-78
2023/04/06 05:56:11;;;;;;;;;;;-0.90;1.00;;;;;;5074773;28;19905;-85
2023/04/06 05:58:37;;;;;;;;;;;-0.80;1.00;;;;;;5057317;28;19965;-86
2023/04/06 06:01:03;;;;;;;;;;;-0.70;1.00;;;;;;5057101;28;19905;-86
2023/04/06 06:03:29;;;;;;;;;;;-0.60;1.00;;;;;;5079311;28;19908;-85
2023/04/06 06:05:59;;;;;;;;;;;-0.60;1.00;;;;;;5095294;28;19912;-85
2023/04/06 06:08:24;;;;;;;;;;;-0.50;1.00;;;;;;5095122;28;20261;-86
2023/04/06 06:10:50;;;;;;;;;;;-0.40;1.00;;;;;;5095072;28;19911;-85
2023/04/06 06:13:16;;;;;;;;;;;-0.30;1.00;;;;;;5095360;28;19961;-86
2023/04/06 06:15:41;;;;;;;;;;;-0.20;1.00;;;;;;5094918;28;19965;-85
2023/04/06 06:18:07;;;;;;;;;;;0.00;1.00;;;;;;5095055;28;19965;-86
2023/04/06 06:20:32;;;;;;;;;;;0.00;1.00;;;;;;5095018;28;19910;-86
2023/04/06 06:22:58;;;;;;;;;;;0.10;1.00;;;;;;5095049;28;19957;-86
2023/04/06 06:25:24;;;;;;;;;;;0.30;1.00;;;;;;5094614;28;19908;-86
2023/04/06 06:27:49;;;;;;;;;;;2.50;1.00;;;;;;5094608;28;19904;-79
2023/04/06 06:30:15;;;;;;;;;;;0.60;1.00;;;;;;5075995;28;19904;-79
2023/04/06 06:32:40;;;;;;;;;;;0.70;1.00;;;;;;5088959;28;19908;-79
2023/04/06 06:35:06;;;;;;;;;;;0.80;1.00;;;;;;5083182;28;19920;-79
2023/04/06 06:37:32;;;;;;;;;;;1.00;1.00;;;;;;5084055;28;19915;-78
2023/04/06 06:39:57;;;;;;;;;;;1.10;1.00;;;;;;5093875;28;19947;-79
2023/04/06 06:42:23;;;;;;;;;;;1.20;1.00;;;;;;5083001;28;20311;-79
2023/04/06 06:44:48;;;;;;;;;;;1.40;1.00;;;;;;5093515;28;19904;-79
2023/04/06 06:47:14;;;;;;;;;;;1.50;1.00;;;;;;5093911;28;19935;-78
2023/04/06 06:49:39;;;;;;;;;;;1.70;1.00;;;;;;5075180;28;19912;-79
2023/04/06 06:52:05;;;;;;;;;;;1.80;1.00;;;;;;5072327;28;20018;-78
2023/04/06 06:54:30;;;;;;;;;;;2.00;1.00;;;;;;5075486;28;19908;-78
2023/04/06 06:56:55;;;;;;;;;;;2.10;1.00;;;;;;5091593;28;20376;-79
2023/04/06 06:59:21;;;;;;;;;;;2.30;1.00;;;;;;5087104;28;19951;-78
2023/04/06 07:01:47;;;;;;;;;;;2.40;1.00;;;;;;5076169;28;20310;-79
2023/04/06 07:04:12;;;;;;;;;;;2.60;1.00;;;;;;5081755;28;19931;-79
2023/04/06 07:06:38;;;;;;;;;;;2.80;1.00;;;;;;5089091;28;19919;-79
2023/04/06 07:09:04;;;;;;;;;;;2.90;1.00;;;;;;5092681;28;19908;-79
2023/04/06 07:11:30;;;;;;;;;;;3.10;1.00;;;;;;5093029;28;19939;-78
2023/04/06 07:13:55;;;;;;;;;;;3.30;1.00;;;;;;5073847;28;19935;-79
2023/04/06 07:16:26;;;;;;;;;;;3.50;1.00;;;;;;5073311;28;19915;-80
2023/04/06 07:18:52;;;;;;;;;;;3.60;1.00;;;;;;5082344;28;19947;-80
2023/04/06 07:21:17;;;;;;;;;;;4.00;1.00;;;;;;5087691;28;19965;-80
2023/04/06 07:23:43;;;;;;;;;;;3.80;1.00;;;;;;5093294;28;20283;-79
2023/04/06 07:26:09;;;;;;;;;;;5.70;1.00;;;;;;5065608;28;20303;-79
2023/04/06 07:28:38;;;;;;;;;;;4.10;1.00;;;;;;5086794;28;19912;-86
2023/04/06 07:31:04;;;;;;;;;;;4.30;1.00;;;;;;5060038;28;19908;-86
2023/04/06 07:33:30;;;;;;;;;;;4.40;1.00;;;;;;5093583;28;20363;-86
2023/04/06 07:35:56;;;;;;;;;;;6.00;1.00;;;;;;5097848;28;19904;-86
2023/04/06 07:38:22;;;;;;;;;;;6.90;1.00;;;;;;5090681;28;19950;-86
2023/04/06 07:40:47;;;;;;;;;;;4.90;1.00;;;;;;5077383;28;20263;-86
2023/04/06 07:43:12;;;;;;;;;;;4.90;1.00;;;;;;5077815;28;19953;-86
2023/04/06 07:45:38;;;;;;;;;;;4.90;1.00;;;;;;5077280;28;20280;-86
2023/04/06 07:48:04;;;;;;;;;;;5.00;1.00;;;;;;5079510;28;19916;-86
2023/04/06 07:50:29;;;;;;;;;;;5.20;1.00;;;;;;5077794;28;19919;-86
2023/04/06 07:52:55;;;;;;;;;;;5.40;1.00;;;;;;5071673;28;19912;-86
2023/04/06 07:55:20;;;;;;;;;;;5.50;1.00;;;;;;5091627;28;19904;-86
2023/04/06 07:57:46;;;;;;;;;;;5.50;1.00;;;;;;5078554;28;19904;-80
2023/04/06 08:00:11;;;;;;;;;;;5.60;1.00;;;;;;5085028;28;19995;-78
2023/04/06 08:02:37;;;;;;;;;;;5.60;1.00;;;;;;5088050;28;20236;-73
2023/04/06 08:05:02;;;;;;;;;;;7.20;1.00;;;;;;5081052;28;20315;-74
2023/04/06 08:07:28;;;;;;;;;;;5.90;1.00;;;;;;5085910;28;19909;-75
2023/04/06 08:09:53;;;;;;;;;;;6.50;1.00;;;;;;5086476;28;19908;-75
2023/04/06 08:12:26;;;;;;;;;;;6.60;1.00;;;;;;5093762;28;19908;-78
2023/04/06 08:15:03;;;;;;;;;;;6.20;1.00;;;;;;5078953;28;19915;-75
2023/04/06 08:17:30;;;;;;;;;;;6.30;1.00;;;;;;5085172;28;20351;-76
2023/04/06 08:19:57;;;;;;;;;;;6.50;1.00;;;;;;5096906;28;19915;-75
2023/04/06 08:22:32;;;;;;;;;;;6.50;1.00;;;;;;5077198;28;19904;-75
2023/04/06 08:25:03;;;;;;;;;;;6.50;1.00;;;;;;5076712;28;19912;-75
2023/04/06 08:27:29;;;;;;;;;;;6.70;1.00;;;;;;5076938;28;19905;-74
2023/04/06 08:29:54;;;;;;;;;;;6.80;1.00;;;;;;5080168;28;20023;-75
2023/04/06 08:32:21;;;;;;;;;;;7.10;1.00;;;;;;5095717;28;19934;-76
2023/04/06 08:34:53;;;;;;;;;;;7.30;1.00;;;;;;5083151;28;20265;-76
2023/04/06 08:37:18;;;;;;;;;;;7.40;1.00;;;;;;5076051;28;19908;-75
2023/04/06 08:40:03;;;;;;;;;;;7.40;1.00;;;;;;5081290;28;20286;-75
2023/04/06 08:42:50;;;;;;;;;;;7.50;1.00;;;;;;5076612;28;19919;-79
2023/04/06 08:45:21;;;;;;;;;;;7.50;1.00;;;;;;5081983;28;19954;-75
2023/04/06 08:47:58;;;;;;;;;;;7.60;1.00;;;;;;5080795;28;19916;-75
2023/04/06 08:50:24;;;;;;;;;;;7.70;1.00;;;;;;5081603;28;19912;-75
2023/04/06 08:52:50;;;;;;;;;;;7.80;1.00;;;;;;5076021;28;19914;-75
2023/04/06 08:55:16;;;;;;;;;;;7.90;1.00;;;;;;5076912;28;19992;-75
2023/04/06 08:57:45;;;;;;;;;;;8.10;1.00;;;;;;5083535;28;20002;-75
2023/04/06 09:00:11;;;;;;;;;;;8.20;1.00;;;;;;5077757;28;20352;-75
2023/04/06 09:02:40;;;;;;;;;;;8.30;1.00;;;;;;5084770;28;19908;-75
2023/04/06 09:05:21;;;;;;;;;;;8.30;1.00;;;;;;5080157;28;19912;-75
2023/04/06 09:07:47;;;;;;;;;;;8.50;1.00;;;;;;5086201;28;20356;-75
2023/04/06 09:10:27;;;;;;;;;;;8.70;1.00;;;;;;5090511;28;19915;-86
2023/04/06 09:13:04;;;;;;;;;;;8.80;1.00;;;;;;5090412;28;19908;-86
2023/04/06 09:15:33;;;;;;;;;;;9.10;1.00;;;;;;5082795;28;19908;-77
2023/04/06 09:18:14;;;;;;;;;;;9.30;1.00;;;;;;5078484;28;20363;-77
2023/04/06 09:20:40;;;;;;;;;;;9.60;1.00;;;;;;5071168;28;20240;-78
2023/04/06 09:23:18;;;;;;;;;;;9.70;1.00;;;;;;5085875;28;19933;-78
2023/04/06 09:25:50;;;;;;;;;;;9.70;1.00;;;;;;5091128;28;19912;-77
2023/04/06 09:28:16;;;;;;;;;;;9.80;1.00;;;;;;5082674;28;19908;-84
2023/04/06 09:30:49;;;;;;;;;;;9.90;1.00;;;;;;5074985;28;19909;-78
2023/04/06 09:33:21;;;;;;;;;;;10.10;1.00;;;;;;5075126;28;20446;-77
2023/04/06 09:35:56;;;;;;;;;;;10.00;1.00;;;;;;5084823;28;19904;-77
2023/04/06 09:38:32;;;;;;;;;;;10.10;1.00;;;;;;5091217;28;19914;-77
2023/04/06 09:41:20;;;;;;;;;;;10.20;1.00;;;;;;5074083;28;19920;-78
2023/04/06 09:44:14;;;;;;;;;;;10.40;1.00;;;;;;5075389;28;19915;-77
2023/04/06 09:46:45;;;;;;;;;;;10.50;1.00;;;;;;5086070;28;19911;-78
2023/04/06 09:49:11;;;;;;;;;;;10.60;1.00;;;;;;5087297;28;19915;-78
2023/04/06 09:51:37;;;;;;;;;;;10.90;1.00;;;;;;5085042;28;19908;-78
2023/04/06 09:54:09;;;;;;;;;;;10.80;1.00;;;;;;5064395;28;19908;-77
2023/04/06 09:56:39;;;;;;;;;;;10.90;1.00;;;;;;5078505;28;20317;-79
2023/04/06 09:59:41;;;;;;;;;;;11.00;1.00;;;;;;5061421;28;19933;-86
2023/04/06 10:02:25;;;;;;;;;;;10.80;1.00;;;;;;5036098;28;19916;-86
2023/04/06 10:05:20;;;;;;;;;;;11.00;1.00;;;;;;5050991;28;19908;-88
2023/04/06 10:08:08;;;;;;;;;;;11.10;1.00;;;;;;5045871;28;19908;-85
2023/04/06 10:13:50;;;;;;;;;;;11.60;1.00;;;;;;5048700;28;19932;-85
2023/04/06 10:19:50;;;;;;;;;;;11.90;1.00;;;;;;5051566;28;19967;-85
2023/04/06 10:22:45;;;;;;;;;;;12.10;1.00;;;;;;5043059;28;19909;-85
2023/04/06 10:25:41;;;;;;;;;;;11.90;1.00;;;;;;5047404;28;19979;-85
2023/04/06 10:28:18;;;;;;;;;;;11.90;1.00;;;;;;5003921;28;19909;-86
2023/04/06 10:30:56;;;;;;;;;;;12.10;1.00;;;;;;5041305;28;19921;-82
2023/04/06 10:33:50;;;;;;;;;;;12.10;1.00;;;;;;5027849;28;19955;-81
2023/04/06 10:39:32;;;;;;;;;;;12.40;1.00;;;;;;5083057;28;19916;-81
2023/04/06 10:42:20;;;;;;;;;;;12.50;1.00;;;;;;5064001;28;19912;-81
2023/04/06 10:44:56;;;;;;;;;;;12.60;1.00;;;;;;5074574;28;19943;-81
2023/04/06 10:47:53;;;;;;;;;;;12.60;1.00;;;;;;5064120;28;19908;-81
2023/04/06 10:50:21;;;;;;;;;;;12.60;1.00;;;;;;5048022;28;19913;-83
2023/04/06 10:53:06;;;;;;;;;;;12.70;1.00;;;;;;5040851;28;19913;-81
2023/04/06 10:55:34;;;;;;;;;;;12.70;1.00;;;;;;5031315;28;19916;-83
2023/04/06 10:58:08;;;;;;;;;;;12.80;1.00;;;;;;5030166;28;19909;-81
2023/04/06 11:00:51;;;;;;;;;;;12.70;1.00;;;;;;5039546;28;20343;-84
2023/04/06 11:03:50;;;;;;;;;;;12.80;1.00;;;;;;5049723;28;20050;-85
2023/04/06 11:06:50;;;;;;;;;;;13.00;1.00;;;;;;5059955;28;19909;-86
2023/04/06 11:12:25;;;;;;;;;;;13.50;1.00;;;;;;5044833;28;19916;-85
2023/04/06 11:14:55;;;;;;;;;;;13.40;1.00;;;;;;5052148;28;20253;-83
2023/04/06 11:17:50;;;;;;;;;;;13.50;1.00;;;;;;5033278;28;19905;-84
2023/04/06 11:20:17;;;;;;;;;;;13.50;1.00;;;;;;5034324;28;19963;-81
2023/04/06 11:22:51;;;;;;;;;;;13.50;1.00;;;;;;5045752;28;19909;-80
2023/04/06 11:25:33;;;;;;;;;;;13.90;1.00;;;;;;5048149;28;19913;-79
2023/04/06 11:28:03;;;;;;;;;;;13.90;1.00;;;;;;5073252;28;19951;-81
2023/04/06 11:30:39;;;;;;;;;;;14.00;1.00;;;;;;5058969;28;19927;-80
2023/04/06 11:33:08;;;;;;;;;;;14.10;1.00;;;;;;5073670;28;19913;-80
2023/04/06 11:35:50;;;;;;;;;;;14.20;1.00;;;;;;5065832;28;19911;-80
2023/04/06 11:38:17;;;;;;;;;;;14.10;1.00;;;;;;5060312;28;19973;-81
2023/04/06 11:40:45;;;;;;;;;;;14.30;1.00;;;;;;5073688;28;19905;-81
2023/04/06 11:43:41;;;;;;;;;;;14.30;1.00;;;;;;5072251;28;19912;-81
2023/04/06 11:46:21;;;;;;;;;;;14.40;1.00;;;;;;5015660;28;20340;-85
2023/04/06 11:48:50;;;;;;;;;;;14.50;1.00;;;;;;5035120;28;19988;-84
2023/04/06 11:51:27;;;;;;;;;;;14.40;1.00;;;;;;5034762;28;19967;-84
2023/04/06 11:53:53;;;;;;;;;;;14.50;1.00;;;;;;5050267;28;20379;-84
2023/04/06 11:56:28;;;;;;;;;;;14.60;1.00;;;;;;5050352;28;20007;-83
2023/04/06 11:58:55;;;;;;;;;;;14.80;1.00;;;;;;5034142;28;20341;-83
2023/04/06 12:01:20;;;;;;;;;;;14.70;1.00;;;;;;5034104;28;19940;-84
2023/04/06 12:03:46;;;;;;;;;;;14.90;1.00;;;;;;5050758;28;19978;-84
2023/04/06 12:06:12;;;;;;;;;;;15.10;1.00;;;;;;5050925;28;19908;-83
2023/04/06 12:08:37;;;;;;;;;;;15.50;1.00;;;;;;5054646;28;19904;-84
2023/04/06 12:11:21;;;;;;;;;;;15.70;1.00;;;;;;5055362;28;19901;-84
2023/04/06 12:13:50;;;;;;;;;;;16.00;1.00;;;;;;5055156;28;19999;-84
2023/04/06 12:16:51;;;;;;;;;;;16.10;1.00;;;;;;5056071;28;19905;-84
2023/04/06 12:19:23;;;;;;;;;;;15.90;1.00;;;;;;5038224;28;19905;-84
2023/04/06 12:21:57;;;;;;;;;;;15.70;1.00;;;;;;5060050;28;19904;-83
2023/04/06 12:24:27;;;;;;;;;;;15.70;1.00;;;;;;5076835;28;20355;-84
2023/04/06 12:29:56;;;;;;;;;;;16.20;1.00;;;;;;5076552;28;19931;-83
2023/04/06 12:32:22;;;;;;;;;;;16.50;1.00;;;;;;5077775;28;19944;-82
2023/04/06 12:34:47;;;;;;;;;;;16.80;1.00;;;;;;5075836;28;20009;-81
2023/04/06 12:37:13;;;;;;;;;;;17.40;1.00;;;;;;5059981;28;19919;-81
2023/04/06 12:39:38;;;;;;;;;;;17.90;1.00;;;;;;5066743;28;19908;-81
2023/04/06 12:48:21;;;;;;;;;;;18.00;1.00;;;;;;5096903;28;19949;-83
2023/04/06 12:50:54;;;;;;;;;;;17.70;1.00;;;;;;5078473;28;20329;-83
2023/04/06 12:53:21;;;;;;;;;;;17.70;1.00;;;;;;5058256;28;19931;-83
2023/04/06 12:55:46;;;;;;;;;;;17.40;1.00;;;;;;5076446;28;19908;-83
2023/04/06 12:58:12;;;;;;;;;;;17.10;1.00;;;;;;5063369;28;19908;-82
2023/04/06 13:00:51;;;;;;;;;;;16.80;1.00;;;;;;5063776;28;19969;-80
2023/04/06 13:03:22;;;;;;;;;;;16.10;1.00;;;;;;5076291;28;19934;-80
2023/04/06 13:05:51;;;;;;;;;;;16.20;1.00;;;;;;5079674;28;19919;-82
2023/04/06 13:08:18;;;;;;;;;;;16.30;1.00;;;;;;5077311;28;19916;-81
2023/04/06 13:16:51;;;;;;;;;;;16.20;1.00;;;;;;5075680;28;19955;-82
2023/04/06 13:19:33;;;;;;;;;;;16.40;1.00;;;;;;5075610;28;20355;-82
2023/04/06 13:22:03;;;;;;;;;;;16.20;1.00;;;;;;5058008;28;19954;-82
2023/04/06 13:24:39;;;;;;;;;;;15.80;1.00;;;;;;5085214;28;19912;-83
2023/04/06 13:27:21;;;;;;;;;;;16.20;1.00;;;;;;5085396;28;20347;-83
2023/04/06 13:30:03;;;;;;;;;;;16.80;1.00;;;;;;5095969;28;19911;-83
2023/04/06 13:32:45;;;;;;;;;;;17.10;1.00;;;;;;5078294;28;20327;-83
2023/04/06 13:35:21;;;;;;;;;;;16.90;1.00;;;;;;5095800;28;19912;-82
2023/04/06 13:37:57;;;;;;;;;;;17.40;1.00;;;;;;5094735;28;20286;-82
2023/04/06 13:40:51;;;;;;;;;;;17.70;1.00;;;;;;5075301;28;19908;-80
2023/04/06 13:43:21;;;;;;;;;;;17.80;1.00;;;;;;5083050;28;19915;-80
2023/04/06 13:46:03;;;;;;;;;;;17.50;1.00;;;;;;5092009;28;20268;-82
2023/04/06 13:48:33;;;;;;;;;;;17.60;1.00;;;;;;5077598;28;20271;-81
2023/04/06 13:51:12;;;;;;;;;;;18.00;1.00;;;;;;5094150;28;19912;-80
2023/04/06 13:53:39;;;;;;;;;;;17.80;1.00;;;;;;5095432;28;20351;-81
2023/04/06 13:56:21;;;;;;;;;;;17.50;1.00;;;;;;5071552;28;19912;-83
2023/04/06 13:58:53;;;;;;;;;;;17.50;1.00;;;;;;5070474;28;19908;-83
2023/04/06 14:01:21;;;;;;;;;;;17.30;1.00;;;;;;5088991;28;20010;-81
2023/04/06 14:04:03;;;;;;;;;;;16.80;1.00;;;;;;5080654;28;19904;-81
2023/04/06 14:06:39;;;;;;;;;;;17.00;1.00;;;;;;5056856;28;20381;-81
2023/04/06 14:09:15;;;;;;;;;;;17.40;1.00;;;;;;5074820;28;19912;-81
2023/04/06 14:11:51;;;;;;;;;;;17.80;1.00;;;;;;5076455;28;20253;-81
2023/04/06 14:14:51;;;;;;;;;;;17.80;1.00;;;;;;5076828;28;19931;-81
2023/04/06 14:17:27;;;;;;;;;;;17.60;1.00;;;;;;5065908;28;19995;-81
2023/04/06 14:19:57;;;;;;;;;;;17.60;1.00;;;;;;5074671;28;19911;-81
2023/04/06 14:22:52;;;;;;;;;;;17.60;1.00;;;;;;5056682;28;19904;-81
2023/04/06 14:25:51;;;;;;;;;;;17.60;1.00;;;;;;5062686;28;19908;-81
2023/04/06 14:28:22;;;;;;;;;;;17.20;1.00;;;;;;5091796;28;19963;-81
2023/04/06 14:31:21;;;;;;;;;;;16.70;1.00;;;;;;5074679;28;19915;-82
2023/04/06 14:36:51;;;;;;;;;;;16.10;1.00;;;;;;5077275;28;19910;-82
2023/04/06 14:39:51;;;;;;;;;;;16.40;1.00;;;;;;5094650;28;20347;-81
2023/04/06 14:42:27;;;;;;;;;;;16.50;1.00;;;;;;5094699;28;19911;-82
2023/04/06 14:47:56;;;;;;;;;;;16.00;1.00;;;;;;5094591;28;20422;-81
2023/04/06 14:50:51;;;;;;;;;;;15.80;1.00;;;;;;5074703;28;19975;-81
2023/04/06 14:53:22;;;;;;;;;;;15.70;1.00;;;;;;5074348;28;19905;-82
2023/04/06 14:55:51;;;;;;;;;;;15.70;1.00;;;;;;5073956;28;19908;-81
2023/04/06 14:58:21;;;;;;;;;;;15.60;1.00;;;;;;5062960;28;19909;-81
2023/04/06 15:01:06;;;;;;;;;;;15.60;1.00;;;;;;5074028;28;19912;-81
2023/04/06 15:03:51;;;;;;;;;;;15.70;1.00;;;;;;5094450;28;19931;-82
2023/04/06 15:06:51;;;;;;;;;;;15.90;1.00;;;;;;5072134;28;19948;-81
2023/04/06 15:09:21;;;;;;;;;;;15.80;1.00;;;;;;5063526;28;19998;-81
2023/04/06 15:14:57;;;;;;;;;;;15.60;1.00;;;;;;5073649;28;20321;-81
2023/04/06 15:17:39;;;;;;;;;;;15.70;1.00;;;;;;5070034;28;19910;-81
2023/04/06 15:20:09;;;;;;;;;;;15.70;1.00;;;;;;5075969;28;19904;-81
2023/04/06 15:22:39;;;;;;;;;;;15.70;1.00;;;;;;5093752;28;19907;-82
2023/04/06 15:25:21;;;;;;;;;;;15.60;1.00;;;;;;5094052;28;19950;-82
2023/04/06 15:27:51;;;;;;;;;;;15.30;1.00;;;;;;5094004;28;19911;-82
2023/04/06 15:30:25;;;;;;;;;;;15.20;1.00;;;;;;5090434;28;19923;-83
2023/04/06 15:33:21;;;;;;;;;;;15.10;1.00;;;;;;5074072;28;19912;-81
2023/04/06 15:36:06;;;;;;;;;;;15.00;1.00;;;;;;5076821;28;19963;-81
2023/04/06 15:38:33;;;;;;;;;;;15.10;1.00;;;;;;5057571;28;20427;-81
2023/04/06 15:41:04;;;;;;;;;;;15.40;1.00;;;;;;5097030;28;19908;-81
2023/04/06 15:43:45;;;;;;;;;;;15.30;1.00;;;;;;5078639;28;19915;-81
2023/04/06 15:46:27;;;;;;;;;;;15.30;1.00;;;;;;5097817;28;19947;-84
2023/04/06 15:49:21;;;;;;;;;;;15.10;1.00;;;;;;5079956;28;20267;-82
2023/04/06 15:51:47;;;;;;;;;;;14.90;1.00;;;;;;5097745;28;20371;-82
2023/04/06 15:54:21;;;;;;;;;;;14.50;1.00;;;;;;5097726;28;19931;-80
2023/04/06 15:56:51;;;;;;;;;;;14.60;1.00;;;;;;5083581;28;19911;-80
2023/04/06 15:59:21;;;;;;;;;;;14.40;1.00;;;;;;5077164;28;19908;-80
2023/04/06 16:01:51;;;;;;;;;;;14.40;1.00;;;;;;5077107;28;19999;-80
2023/04/06 16:04:22;;;;;;;;;;;14.40;1.00;;;;;;5077859;28;19911;-82
2023/04/06 16:07:21;;;;;;;;;;;14.20;1.00;;;;;;5077151;28;19908;-83
2023/04/06 16:09:57;;;;;;;;;;;14.20;1.00;;;;;;5060599;28;19905;-80
2023/04/06 16:12:33;;;;;;;;;;;14.00;1.00;;;;;;5077022;28;19904;-81
2023/04/06 16:15:09;;;;;;;;;;;13.90;1.00;;;;;;5076965;28;20003;-81
2023/04/06 16:17:51;;;;;;;;;;;13.70;1.00;;;;;;5077044;28;19912;-82
2023/04/06 16:20:17;;;;;;;;;;;13.50;1.00;;;;;;5077210;28;20029;-82
2023/04/06 16:25:53;;;;;;;;;;;13.50;1.00;;;;;;5076487;28;20380;-81
2023/04/06 16:28:22;;;;;;;;;;;13.30;1.00;;;;;;5077739;28;19907;-82
2023/04/06 16:31:03;;;;;;;;;;;13.30;1.00;;;;;;5072687;28;19908;-82
2023/04/06 16:33:33;;;;;;;;;;;13.40;1.00;;;;;;5078959;28;19919;-81
2023/04/06 16:36:00;;;;;;;;;;;13.20;1.00;;;;;;5067235;28;19911;-82
2023/04/06 16:38:45;;;;;;;;;;;13.30;1.00;;;;;;5075290;28;19919;-81
2023/04/06 16:41:21;;;;;;;;;;;13.20;1.00;;;;;;5079955;28;19947;-82
2023/04/06 16:43:52;;;;;;;;;;;13.30;1.00;;;;;;5058959;28;20274;-81
2023/04/06 16:46:21;;;;;;;;;;;13.30;1.00;;;;;;5058661;28;20465;-82
2023/04/06 16:48:51;;;;;;;;;;;13.30;1.00;;;;;;5076356;28;19911;-81
2023/04/06 16:51:21;;;;;;;;;;;13.20;1.00;;;;;;5076553;28;19947;-81